Time;durP1;ratioP1;P1;durP2;ratioP2;P2;SDS_P1;SDS_P2;PMS_P1;PMS_P2;Temp;Humidity;BMP_temperature;BMP_pressure;BME280_temperature;BME280_humidity;BME280_pressure;Samples;Min_cycle;Max_cycle;Signal;HPM_P1;HPM_P2
2022/05/27 00:00:17;;;;;;;4.18;3.42;;;;;;;18.76;62.66;100298.38;5033356;28;20383;-90
2022/05/27 00:02:43;;;;;;;3.30;3.00;;;;;;;18.80;63.29;100301.56;5016811;28;20026;-91
2022/05/27 00:05:09;;;;;;;3.85;2.88;;;;;;;18.70;62.65;100296.41;5016383;28;20037;-89
2022/05/27 00:07:34;;;;;;;4.20;2.78;;;;;;;18.64;62.53;100293.56;5016221;28;20037;-90
2022/05/27 00:09:59;;;;;;;4.38;2.80;;;;;;;18.71;62.78;100291.81;5016115;28;20083;-88
2022/05/27 00:12:25;;;;;;;4.03;2.83;;;;;;;18.72;62.35;100299.75;5015787;28;20021;-90
2022/05/27 00:14:50;;;;;;;5.13;3.10;;;;;;;18.71;62.56;100289.09;5016432;28;20022;-90
2022/05/27 00:17:16;;;;;;;3.20;2.55;;;;;;;18.65;62.56;100282.56;5016223;28;20025;-90
2022/05/27 00:19:41;;;;;;;4.90;2.35;;;;;;;18.60;62.97;100279.53;5016177;28;20022;-90
2022/05/27 00:22:08;;;;;;;4.43;2.72;;;;;;;18.54;62.51;100280.25;5016534;28;20468;-90
2022/05/27 00:24:36;;;;;;;4.30;2.78;;;;;;;18.53;62.02;100275.84;5016460;28;20025;-90
2022/05/27 00:27:01;;;;;;;3.80;2.60;;;;;;;18.58;63.71;100273.44;5016336;28;20056;-90
2022/05/27 00:29:27;;;;;;;4.00;2.83;;;;;;;18.67;63.28;100285.06;5016062;28;20029;-89
2022/05/27 00:31:52;;;;;;;5.03;2.78;;;;;;;18.53;62.22;100282.13;5032284;28;20025;-89
2022/05/27 00:34:17;;;;;;;4.70;3.00;;;;;;;18.50;62.51;100277.06;5015987;28;20021;-91
2022/05/27 00:36:43;;;;;;;3.53;2.60;;;;;;;18.53;62.41;100278.56;5016268;28;20026;-90
2022/05/27 00:39:08;;;;;;;2.70;2.45;;;;;;;18.47;62.34;100277.41;5032465;28;20031;-90
2022/05/27 00:41:33;;;;;;;3.70;2.70;;;;;;;18.50;63.07;100271.63;5032810;28;20116;-90
2022/05/27 00:43:59;;;;;;;2.92;2.47;;;;;;;18.43;62.87;100273.38;5015775;28;20144;-91
2022/05/27 00:46:27;;;;;;;3.97;2.78;;;;;;;18.56;63.29;100268.22;5015726;28;20041;-89
2022/05/27 00:48:54;;;;;;;4.70;2.60;;;;;;;18.44;62.34;100264.22;5015725;28;20179;-89
2022/05/27 00:51:23;;;;;;;4.25;2.22;;;;;;;18.44;62.18;100271.50;5015854;28;20045;-90
2022/05/27 00:53:57;;;;;;;3.88;2.33;;;;;;;18.52;63.34;100266.03;5015840;28;20025;-89
2022/05/27 00:56:25;;;;;;;3.33;2.38;;;;;;;18.51;62.71;100264.34;5016135;28;20068;-90
2022/05/27 00:58:55;;;;;;;4.40;1.98;;;;;;;18.49;62.12;100251.00;5015671;28;20021;-91
2022/05/27 01:01:20;;;;;;;1.95;1.80;;;;;;;18.43;63.43;100262.53;5015350;28;20384;-89
2022/05/27 01:03:46;;;;;;;5.20;2.28;;;;;;;18.33;62.92;100255.66;5014909;28;20036;-89
2022/05/27 01:06:11;;;;;;;6.13;1.63;;;;;;;18.21;62.57;100252.53;5014900;28;20057;-90
2022/05/27 01:08:37;;;;;;;1.90;1.50;;;;;;;18.23;62.40;100247.78;5032154;28;20033;-90
2022/05/27 01:11:34;;;;;;;4.18;1.80;;;;;;;18.36;63.46;100247.19;5015311;28;20386;-89
2022/05/27 01:14:02;;;;;;;2.95;1.60;;;;;;;18.42;62.62;100247.31;5031890;28;20022;-90
2022/05/27 01:17:09;;;;;;;1.65;1.30;;;;;;;18.33;62.11;100248.38;5032212;28;20028;-90
2022/05/27 01:23:03;;;;;;;2.65;1.52;;;;;;;18.29;62.18;100236.25;5035081;28;20045;-89
2022/05/27 01:25:49;;;;;;;2.83;1.35;;;;;;;18.13;62.49;100236.38;5036024;28;20475;-88
2022/05/27 01:28:23;;;;;;;1.73;1.42;;;;;;;18.10;63.01;100226.75;5019383;28;20029;-89
2022/05/27 01:31:15;;;;;;;3.65;1.60;;;;;;;18.08;62.17;100238.78;5037386;28;20438;-89
2022/05/27 01:33:53;;;;;;;2.55;1.42;;;;;;;18.10;62.72;100226.75;5033312;28;20041;-88
2022/05/27 01:36:58;;;;;;;3.85;1.50;;;;;;;18.03;63.00;100224.94;5019206;28;20502;-89
2022/05/27 01:39:29;;;;;;;3.63;1.50;;;;;;;18.08;62.75;100233.34;5018983;28;20026;-88
2022/05/27 01:42:14;;;;;;;3.65;1.70;;;;;;;18.05;63.42;100222.88;5035776;28;20026;-90
2022/05/27 01:44:55;;;;;;;2.50;1.20;;;;;;;18.02;63.30;100215.97;5019383;28;20483;-90
2022/05/27 01:47:25;;;;;;;3.40;1.20;;;;;;;18.05;62.69;100220.19;5036862;28;20179;-89
2022/05/27 01:49:59;;;;;;;2.00;1.27;;;;;;;18.12;63.10;100219.28;5035503;28;20034;-89
2022/05/27 01:52:31;;;;;;;4.72;1.30;;;;;;;18.08;62.45;100217.97;5018930;28;20029;-89
2022/05/27 01:55:09;;;;;;;3.35;1.10;;;;;;;18.04;63.63;100221.22;5018963;28;20021;-90
2022/05/27 01:57:37;;;;;;;2.28;1.10;;;;;;;18.16;63.37;100211.63;5035355;28;20035;-90
2022/05/27 02:00:13;;;;;;;4.22;1.15;;;;;;;18.14;63.65;100210.97;5035537;28;20033;-90
2022/05/27 02:02:42;;;;;;;3.00;1.08;;;;;;;18.15;63.55;100212.66;5018938;28;20387;-91
2022/05/27 02:05:21;;;;;;;1.10;1.00;;;;;;;18.19;63.34;100204.00;5018693;28;20131;-90
2022/05/27 02:07:55;;;;;;;3.65;1.17;;;;;;;18.13;63.16;100214.72;5018693;28;20021;-89
2022/05/27 02:10:28;;;;;;;3.03;0.90;;;;;;;17.94;62.85;100214.13;5018845;28;20021;-92
2022/05/27 02:13:04;;;;;;;2.00;0.90;;;;;;;18.01;63.23;100210.75;5018815;28;20017;-92
2022/05/27 02:15:32;;;;;;;1.40;1.00;;;;;;;18.04;63.36;100207.66;5018854;28;20045;-91
2022/05/27 02:18:37;;;;;;;1.50;0.90;;;;;;;17.95;64.99;100204.16;5018640;28;20021;-91
2022/05/27 02:21:21;;;;;;;1.73;1.05;;;;;;;17.95;65.69;100214.97;5018725;28;20030;-90
2022/05/27 02:24:09;;;;;;;3.70;1.05;;;;;;;17.96;66.08;100205.00;5019065;28;20101;-91
2022/05/27 02:26:39;;;;;;;4.03;1.33;;;;;;;17.99;66.37;100215.50;5035366;28;20029;-89
2022/05/27 02:29:09;;;;;;;1.80;0.82;;;;;;;18.02;66.29;100209.72;5035328;28;20022;-91
2022/05/27 02:31:37;;;;;;;1.40;0.80;;;;;;;17.98;65.82;100220.06;5018289;28;20463;-89
2022/05/27 02:37:05;;;;;;;2.60;1.20;;;;;;;18.06;66.42;100213.75;4981705;28;20045;-90
2022/05/27 02:39:31;;;;;;;2.63;1.20;;;;;;;18.06;66.36;100216.44;5018179;28;20029;-90
2022/05/27 02:42:07;;;;;;;1.90;1.00;;;;;;;17.96;67.23;100218.53;5017997;28;20040;-89
2022/05/27 02:44:45;;;;;;;1.60;0.90;;;;;;;17.84;67.46;100210.81;5018276;28;20036;-89
2022/05/27 02:47:25;;;;;;;2.95;1.20;;;;;;;17.80;68.13;100220.31;5035310;28;20101;-89
2022/05/27 02:50:09;;;;;;;2.05;1.17;;;;;;;17.81;67.65;100213.88;5017758;28;20494;-88
2022/05/27 02:53:08;;;;;;;2.08;0.93;;;;;;;17.72;68.70;100208.69;5017748;28;20029;-89
2022/05/27 02:55:46;;;;;;;3.45;1.10;;;;;;;17.72;67.93;100206.00;5034143;28;20359;-90
2022/05/27 02:58:12;;;;;;;3.40;1.20;;;;;;;17.73;68.05;100210.38;5017512;28;20029;-89
2022/05/27 03:00:39;;;;;;;3.40;1.40;;;;;;;17.71;68.86;100212.44;5017585;28;20051;-89
2022/05/27 03:03:04;;;;;;;2.17;1.13;;;;;;;17.71;68.54;100207.88;5017573;28;20485;-88
2022/05/27 03:05:55;;;;;;;1.20;0.95;;;;;;;17.69;68.54;100199.09;5017295;28;20140;-88
2022/05/27 03:08:26;;;;;;;1.35;0.85;;;;;;;17.79;69.38;100205.09;5017254;28;20018;-86
2022/05/27 03:11:02;;;;;;;2.08;1.08;;;;;;;17.76;69.39;100199.22;5033615;28;20032;-87
2022/05/27 03:14:00;;;;;;;1.35;0.90;;;;;;;17.68;69.06;100196.56;5033645;28;20045;-87
2022/05/27 03:16:44;;;;;;;2.90;1.00;;;;;;;17.77;69.54;100193.63;5017149;28;20399;-87
2022/05/27 03:19:47;;;;;;;2.58;1.17;;;;;;;17.65;69.54;100195.03;5033768;28;20502;-87
2022/05/27 03:22:34;;;;;;;2.97;1.50;;;;;;;17.59;69.87;100187.63;5033458;28;20391;-87
2022/05/27 03:25:31;;;;;;;1.95;1.30;;;;;;;17.59;69.89;100187.63;5033278;28;20025;-86
2022/05/27 03:28:20;;;;;;;2.63;1.30;;;;;;;17.75;70.33;100189.41;5033158;28;20087;-85
2022/05/27 03:31:12;;;;;;;2.15;1.08;;;;;;;17.68;69.55;100192.00;5016509;28;20482;-86
2022/05/27 03:33:47;;;;;;;2.90;1.25;;;;;;;17.61;70.04;100190.97;5016265;28;20029;-85
2022/05/27 03:36:20;;;;;;;1.52;1.30;;;;;;;17.60;70.39;100189.31;5032882;28;20025;-86
2022/05/27 03:39:09;;;;;;;2.92;1.38;;;;;;;17.55;71.42;100197.09;5016347;28;20492;-86
2022/05/27 03:42:04;;;;;;;1.55;1.30;;;;;;;17.58;70.70;100194.88;5016052;28;20049;-86
2022/05/27 03:44:30;;;;;;;3.17;1.40;;;;;;;17.52;70.89;100187.50;5015361;28;20037;-86
2022/05/27 03:46:57;;;;;;;1.67;1.20;;;;;;;17.53;71.36;100191.03;5031360;28;20029;-88
2022/05/27 03:49:22;;;;;;;2.83;1.50;;;;;;;17.47;71.42;100189.00;5016080;28;20095;-86
2022/05/27 03:51:57;;;;;;;2.70;1.63;;;;;;;17.48;71.51;100185.28;5032544;28;20022;-86
2022/05/27 03:54:22;;;;;;;2.85;1.52;;;;;;;17.48;71.54;100179.88;5032652;28;20538;-86
2022/05/27 03:56:49;;;;;;;2.35;1.35;;;;;;;17.50;71.79;100192.22;5016152;28;20056;-86
2022/05/27 03:59:16;;;;;;;2.83;1.73;;;;;;;17.43;71.22;100187.69;5032220;28;20024;-86
2022/05/27 04:01:44;;;;;;;3.80;1.73;;;;;;;17.45;71.25;100188.34;5033172;28;20028;-92
2022/05/27 04:04:11;;;;;;;1.95;1.52;;;;;;;17.43;72.03;100184.97;5017124;28;20487;-91
2022/05/27 04:06:37;;;;;;;2.90;1.60;;;;;;;17.43;72.11;100184.97;5016730;28;20505;-92
2022/05/27 04:09:03;;;;;;;2.53;1.80;;;;;;;17.40;71.83;100183.47;5033599;28;20048;-91
2022/05/27 04:11:30;;;;;;;2.88;1.85;;;;;;;17.38;72.17;100181.97;5016663;28;20112;-91
2022/05/27 04:13:55;;;;;;;3.08;1.83;;;;;;;17.49;71.88;100177.00;5016842;28;20052;-91
2022/05/27 04:16:20;;;;;;;3.47;2.00;;;;;;;17.45;71.77;100182.94;5017060;28;20057;-91
2022/05/27 04:18:46;;;;;;;3.30;2.03;;;;;;;17.43;71.61;100176.84;5033227;28;20542;-92
2022/05/27 04:21:12;;;;;;;4.13;1.98;;;;;;;17.47;72.38;100178.19;5033215;28;20468;-91
2022/05/27 04:23:37;;;;;;;3.42;2.10;;;;;;;17.51;72.24;100182.25;5016836;28;20022;-88
2022/05/27 04:26:03;;;;;;;3.53;2.10;;;;;;;17.43;71.56;100176.84;5016982;28;20399;-90
2022/05/27 04:28:28;;;;;;;4.45;2.22;;;;;;;17.39;71.68;100179.06;5017259;28;20021;-91
2022/05/27 04:30:54;;;;;;;4.18;2.20;;;;;;;17.35;71.51;100179.59;5017123;28;20022;-87
2022/05/27 04:33:19;;;;;;;5.13;2.50;;;;;;;17.33;72.60;100181.66;5017022;28;20464;-90
2022/05/27 04:35:46;;;;;;;4.40;2.38;;;;;;;17.30;72.48;100178.28;5016818;28;20021;-93
2022/05/27 04:38:11;;;;;;;4.18;2.10;;;;;;;17.39;72.27;100180.94;5033243;28;20033;-94
2022/05/27 04:40:37;;;;;;;4.28;2.25;;;;;;;17.39;72.44;100183.63;5016598;28;20017;-91
2022/05/27 04:43:02;;;;;;;4.55;2.42;;;;;;;17.37;72.44;100173.00;5017162;28;20120;-89
2022/05/27 04:45:29;;;;;;;3.33;2.25;;;;;;;17.38;73.02;100177.38;5016796;28;20104;-93
2022/05/27 04:47:54;;;;;;;4.57;2.33;;;;;;;17.41;72.79;100179.75;5016575;28;20025;-92
2022/05/27 04:50:19;;;;;;;3.83;2.45;;;;;;;17.46;72.52;100181.91;5033102;28;20116;-92
2022/05/27 04:52:45;;;;;;;5.82;2.50;;;;;;;17.42;72.92;100178.72;5016459;28;20041;-92
2022/05/27 04:55:13;;;;;;;4.60;2.80;;;;;;;17.41;73.51;100178.91;5016472;28;20034;-93
2022/05/27 04:57:47;;;;;;;5.20;2.75;;;;;;;17.39;73.15;100183.63;5016406;28;20025;-93
2022/05/27 05:00:36;;;;;;;6.13;2.70;;;;;;;17.42;72.84;100186.84;5016297;28;20038;-93
2022/05/27 05:03:02;;;;;;;5.35;2.58;;;;;;;17.41;73.23;100184.31;5016723;28;20033;-92
2022/05/27 05:05:30;;;;;;;3.42;2.50;;;;;;;17.44;72.77;100186.66;5016119;28;20052;-93
2022/05/27 05:07:59;;;;;;;5.13;2.78;;;;;;;17.39;72.67;100183.63;5032865;28;20124;-92
2022/05/27 05:10:25;;;;;;;;;;;;;;;17.37;72.78;100181.13;5016599;28;20021;-90
2022/05/27 05:12:51;;;;;;;4.93;2.58;;;;;;;17.31;72.63;100168.31;5032393;28;19913;-92
2022/05/27 05:15:18;;;;;;;6.85;2.85;;;;;;;17.39;73.14;100181.78;5032251;28;20025;-90
2022/05/27 05:17:44;;;;;;;8.48;3.08;;;;;;;17.34;73.15;100180.63;5015904;28;20383;-92
2022/05/27 05:20:12;;;;;;;4.30;2.90;;;;;;;17.27;73.43;100173.22;5015768;28;20023;-91
2022/05/27 05:22:37;;;;;;;4.90;2.70;;;;;;;17.27;74.12;100166.97;5015703;28;20021;-92
2022/05/27 05:25:03;;;;;;;3.47;2.70;;;;;;;17.27;74.06;100175.94;5032777;28;20037;-90
2022/05/27 05:27:29;;;;;;;3.42;2.30;;;;;;;17.29;74.18;100182.00;5048799;28;20383;-93
2022/05/27 05:29:56;;;;;;;5.07;2.45;;;;;;;17.23;73.49;100177.28;5049201;28;20060;-91
2022/05/27 05:32:22;;;;;;;5.50;2.63;;;;;;;17.20;74.21;100183.06;5032509;28;20029;-92
2022/05/27 05:34:48;;;;;;;3.60;2.30;;;;;;;17.18;74.97;100195.91;5032195;28;20622;-93
2022/05/27 05:37:14;;;;;;;3.47;2.20;;;;;;;17.25;74.88;100180.66;5032121;28;20026;-91
2022/05/27 05:39:40;;;;;;;4.43;2.45;;;;;;;17.33;74.17;100185.19;5047951;28;20478;-91
2022/05/27 05:42:06;;;;;;;2.97;2.30;;;;;;;17.27;74.94;100188.59;5033783;28;20040;-92
2022/05/27 05:44:32;;;;;;;3.35;2.13;;;;;;;17.30;75.02;100190.94;5034949;28;20120;-90
2022/05/27 05:46:57;;;;;;;3.50;2.13;;;;;;;17.24;74.78;100189.78;5035081;28;20108;-91
2022/05/27 05:49:23;;;;;;;5.45;2.30;;;;;;;17.24;75.67;100191.66;5051537;28;20051;-90
2022/05/27 05:51:52;;;;;;;3.15;2.13;;;;;;;17.20;76.23;100193.88;5034839;28;20411;-91
2022/05/27 05:54:20;;;;;;;3.53;1.92;;;;;;;17.22;75.34;100194.53;5034917;28;20021;-90
2022/05/27 05:56:47;;;;;;;3.63;2.28;;;;;;;17.26;76.26;100195.88;5035606;28;20041;-92
2022/05/27 05:59:13;;;;;;;5.72;2.40;;;;;;;17.33;75.87;100201.41;5031582;28;20057;-90
2022/05/27 06:01:38;;;;;;;3.40;2.40;;;;;;;17.36;76.17;100201.06;5031194;28;20071;-91
2022/05/27 06:04:03;;;;;;;4.30;2.42;;;;;;;17.33;76.63;100208.69;5031638;28;20025;-91
2022/05/27 06:06:29;;;;;;;2.83;2.17;;;;;;;17.21;76.46;100205.53;5014564;28;20038;-90
2022/05/27 06:08:54;;;;;;;2.97;2.03;;;;;;;17.25;77.66;100205.00;5015673;28;20542;-90
2022/05/27 06:11:20;;;;;;;2.30;1.80;;;;;;;17.19;77.60;100203.00;5018396;28;20183;-90
2022/05/27 06:13:46;;;;;;;2.22;1.92;;;;;;;17.18;77.38;100209.41;5034659;28;20029;-90
2022/05/27 06:16:11;;;;;;;4.25;2.38;;;;;;;17.21;77.36;100216.34;5037748;28;20098;-87
2022/05/27 06:18:37;;;;;;;3.83;2.05;;;;;;;17.16;77.92;100213.31;5030406;28;20364;-87
2022/05/27 06:21:02;;;;;;;3.53;2.08;;;;;;;17.25;78.48;100217.66;5054296;28;20025;-90
2022/05/27 06:23:28;;;;;;;3.67;2.28;;;;;;;17.22;77.93;100218.03;5040223;28;20108;-89
2022/05/27 06:25:59;;;;;;;2.53;1.90;;;;;;;17.21;78.06;100216.34;5038261;28;20045;-89
2022/05/27 06:36:37;;;;;;;2.92;2.35;;;;;;;17.07;79.21;100234.13;5042335;28;20072;-89
2022/05/27 06:39:04;;;;;;;2.28;1.63;;;;;;;17.06;78.99;100232.44;5052657;28;20024;-88
2022/05/27 06:41:30;;;;;;;2.47;1.80;;;;;;;17.05;79.95;100229.91;5017923;28;20029;-88
2022/05/27 06:43:55;;;;;;;3.10;1.73;;;;;;;17.03;79.59;100238.19;5018005;28;20079;-89
2022/05/27 06:46:21;;;;;;;2.35;1.70;;;;;;;17.03;79.84;100231.91;5061839;28;20025;-90
2022/05/27 06:48:46;;;;;;;2.05;1.67;;;;;;;16.93;80.21;100235.66;5034501;28;20061;-90
2022/05/27 06:51:12;;;;;;;1.70;1.60;;;;;;;16.98;80.70;100235.13;5034193;28;20387;-90
2022/05/27 06:53:37;;;;;;;2.40;1.70;;;;;;;16.92;80.60;100235.81;5034321;28;20129;-90
2022/05/27 06:56:02;;;;;;;2.13;1.88;;;;;;;16.88;80.51;100240.72;5034275;28;20471;-90
2022/05/27 06:58:28;;;;;;;2.58;1.88;;;;;;;16.94;81.03;100233.78;5036812;28;20525;-89
2022/05/27 07:00:54;;;;;;;2.40;1.90;;;;;;;16.94;81.31;100240.03;5035439;28;20475;-90
2022/05/27 07:03:19;;;;;;;2.97;1.70;;;;;;;17.00;80.88;100244.75;5033784;28;20108;-89
2022/05/27 07:05:44;;;;;;;2.22;1.60;;;;;;;16.99;81.25;100243.06;5027275;28;20463;-89
2022/05/27 07:08:10;;;;;;;1.90;1.70;;;;;;;17.02;81.98;100244.56;5046869;28;20029;-92
2022/05/27 07:10:35;;;;;;;1.85;1.60;;;;;;;17.03;81.46;100246.28;5030295;28;20029;-91
2022/05/27 07:13:02;;;;;;;2.88;1.80;;;;;;;17.06;81.86;100242.41;5038147;28;20066;-89
2022/05/27 07:15:29;;;;;;;1.92;1.55;;;;;;;16.96;82.60;100250.66;5029734;28;20112;-90
2022/05/27 07:17:55;;;;;;;1.65;1.33;;;;;;;16.79;82.54;100249.84;5035962;28;20029;-90
2022/05/27 07:20:20;;;;;;;1.60;1.50;;;;;;;16.86;83.29;100250.84;5038637;28;20074;-90
2022/05/27 07:22:45;;;;;;;1.67;1.20;;;;;;;16.87;83.75;100247.13;5032316;28;20067;-90
2022/05/27 07:25:13;;;;;;;1.65;1.25;;;;;;;16.93;83.78;100253.72;5039699;28;20530;-90
2022/05/27 07:27:39;;;;;;;1.38;1.00;;;;;;;17.03;83.06;100256.22;5046904;28;20112;-89
2022/05/27 07:30:05;;;;;;;1.88;1.33;;;;;;;17.04;83.01;100249.84;5027079;28;20032;-91
2022/05/27 07:32:35;;;;;;;2.25;1.45;;;;;;;16.98;82.79;100259.44;5029596;28;20029;-91
2022/05/27 07:35:01;;;;;;;1.50;1.40;;;;;;;16.88;83.05;100262.34;5032434;28;20021;-90
2022/05/27 07:37:27;;;;;;;1.67;1.50;;;;;;;16.61;83.21;100266.22;5026451;28;20033;-90
2022/05/27 07:39:52;;;;;;;1.60;1.50;;;;;;;16.61;83.13;100274.31;5036311;28;20526;-88
2022/05/27 07:42:17;;;;;;;2.88;1.67;;;;;;;16.81;83.98;100271.28;5028045;28;20113;-89
2022/05/27 07:44:43;;;;;;;2.28;1.63;;;;;;;16.90;83.33;100271.09;5022270;28;20033;-89
2022/05/27 07:47:08;;;;;;;1.95;1.70;;;;;;;16.90;83.72;100264.88;5040872;28;20024;-90
2022/05/27 07:49:33;;;;;;;2.95;1.73;;;;;;;16.96;84.21;100267.72;5027954;28;20071;-85
2022/05/27 07:52:01;;;;;;;4.15;2.42;;;;;;;16.92;83.34;100277.19;5038891;28;20021;-84
2022/05/27 07:54:26;;;;;;;3.28;2.65;;;;;;;16.84;83.79;100262.84;5035449;28;20116;-83
2022/05/27 07:56:51;;;;;;;3.28;2.60;;;;;;;16.84;83.92;100261.00;5037669;28;20215;-84
2022/05/27 07:59:17;;;;;;;4.70;3.03;;;;;;;16.87;82.98;100262.50;5038693;28;20117;-83
2022/05/27 08:01:42;;;;;;;3.13;2.80;;;;;;;16.89;83.61;100255.91;5046796;28;20049;-83
2022/05/27 08:04:08;;;;;;;3.78;2.50;;;;;;;17.03;83.46;100269.72;5027250;28;20033;-83
2022/05/27 08:06:33;;;;;;;4.97;2.80;;;;;;;17.09;83.82;100269.06;5053803;28;20128;-83
2022/05/27 08:08:59;;;;;;;5.35;2.92;;;;;;;17.03;83.17;100273.31;5021891;28;20159;-83
2022/05/27 08:11:24;;;;;;;5.50;3.47;;;;;;;17.02;84.08;100277.00;5047014;28;20036;-83
2022/05/27 08:13:50;;;;;;;3.85;2.63;;;;;;;17.01;84.37;100275.31;5049366;28;20037;-83
2022/05/27 08:16:16;;;;;;;4.60;3.17;;;;;;;17.03;83.83;100281.41;5041639;28;20033;-83
2022/05/27 08:18:41;;;;;;;4.28;2.90;;;;;;;16.99;83.79;100278.19;5037623;28;20024;-83
2022/05/27 08:21:06;;;;;;;3.95;2.67;;;;;;;17.04;84.73;100293.91;5016290;28;20028;-83
2022/05/27 08:23:32;;;;;;;7.40;3.13;;;;;;;16.96;83.85;100291.19;5032542;28;20125;-83
2022/05/27 08:25:58;;;;;;;5.18;3.25;;;;;;;16.86;82.13;100288.69;5042011;28;20060;-83
2022/05/27 08:28:24;;;;;;;4.32;3.00;;;;;;;16.72;81.77;100277.72;5023997;28;20076;-84
2022/05/27 08:30:51;;;;;;;4.93;2.95;;;;;;;16.83;83.17;100280.06;5035101;28;20467;-85
2022/05/27 08:33:16;;;;;;;4.13;2.55;;;;;;;16.93;83.03;100286.97;5026831;28;20368;-85
2022/05/27 08:38:32;;;;;;;5.10;2.90;;;;;;;16.89;83.38;100291.03;5040717;28;20082;-84
2022/05/27 08:41:33;;;;;;;6.68;3.08;;;;;;;17.01;83.08;100294.22;5029999;28;20018;-84
2022/05/27 08:44:13;;;;;;;5.10;2.90;;;;;;;17.13;83.23;100287.47;4970138;28;20065;-85
2022/05/27 08:47:00;;;;;;;3.88;3.00;;;;;;;17.30;83.34;100286.41;5041102;28;20060;-83
2022/05/27 08:49:32;;;;;;;5.18;3.78;;;;;;;17.39;82.78;100281.81;5043249;28;20029;-83
2022/05/27 08:52:07;;;;;;;4.20;3.47;;;;;;;17.45;82.28;100283.81;5035100;28;20112;-82
2022/05/27 08:54:47;;;;;;;6.55;5.20;;;;;;;17.40;82.17;100280.81;5042754;28;20295;-83
2022/05/27 09:00:00;;;;;;;6.90;5.05;;;;;;;17.42;82.21;100284.19;5041769;28;20112;-83
2022/05/27 09:02:58;;;;;;;6.32;4.80;;;;;;;17.44;80.98;100281.28;5037736;28;20043;-83
2022/05/27 09:05:33;;;;;;;5.68;4.22;;;;;;;17.51;81.31;100275.03;5014290;28;20474;-83
2022/05/27 09:08:05;;;;;;;6.32;4.68;;;;;;;17.46;81.50;100271.16;5031981;28;20037;-83
2022/05/27 09:10:36;;;;;;;7.03;4.90;;;;;;;17.52;81.46;100279.44;5048363;28;20109;-83
2022/05/27 09:13:22;;;;;;;7.60;5.47;;;;;;;17.57;81.26;100282.47;5046019;28;20025;-83
2022/05/27 09:15:51;;;;;;;6.35;5.45;;;;;;;17.57;80.95;100279.75;5027566;28;20021;-84
2022/05/27 09:18:30;;;;;;;8.15;5.78;;;;;;;17.61;80.75;100280.25;5039648;28;20049;-83
2022/05/27 09:21:13;;;;;;;8.40;7.07;;;;;;;17.51;79.81;100282.31;5031768;28;20017;-83
2022/05/27 09:23:50;;;;;;;8.95;7.10;;;;;;;17.53;80.28;100291.94;5034277;28;20025;-84
2022/05/27 09:26:22;;;;;;;9.45;7.95;;;;;;;17.44;80.14;100294.81;5037590;28;20018;-86
2022/05/27 09:28:57;;;;;;;8.95;6.88;;;;;;;17.38;77.67;100279.28;5022689;28;20024;-85
2022/05/27 09:31:39;;;;;;;8.02;7.20;;;;;;;17.40;78.41;100288.06;5016752;28;20022;-86
2022/05/27 09:34:08;;;;;;;8.10;7.05;;;;;;;17.39;78.87;100281.81;5032000;28;20037;-86
2022/05/27 09:36:36;;;;;;;7.82;7.07;;;;;;;17.41;77.68;100281.66;5026195;28;20021;-86
2022/05/27 09:39:06;;;;;;;10.18;7.05;;;;;;;17.44;76.95;100282.13;5027320;28;20074;-86
2022/05/27 09:41:52;;;;;;;7.47;6.78;;;;;;;17.52;76.94;100273.19;5026213;28;20028;-86
2022/05/27 09:44:54;;;;;;;8.57;7.30;;;;;;;17.60;77.23;100270.44;5034897;28;20025;-86
2022/05/27 09:47:20;;;;;;;8.93;7.57;;;;;;;17.66;78.01;100279.72;5035263;28;20033;-85
2022/05/27 09:49:53;;;;;;;8.32;7.35;;;;;;;17.68;77.69;100261.47;5034065;28;20025;-84
2022/05/27 09:52:19;;;;;;;7.15;6.47;;;;;;;17.67;76.85;100265.19;5028917;28;20020;-85
2022/05/27 09:54:47;;;;;;;8.93;6.80;;;;;;;17.68;76.50;100265.03;5031100;28;20045;-85
2022/05/27 09:57:16;;;;;;;8.32;6.30;;;;;;;17.70;76.43;100264.84;5032143;28;20033;-84
2022/05/27 09:59:54;;;;;;;6.82;5.50;;;;;;;17.55;74.71;100273.69;5042111;28;20029;-86
2022/05/27 10:02:26;;;;;;;7.35;4.93;;;;;;;17.31;71.15;100277.28;5038721;28;20116;-86
2022/05/27 10:05:11;;;;;;;6.82;5.20;;;;;;;17.29;72.49;100283.88;5027333;28;20025;-85
2022/05/27 10:07:51;;;;;;;7.65;5.47;;;;;;;17.45;73.93;100273.00;5032580;28;20037;-85
2022/05/27 10:10:35;;;;;;;8.18;5.90;;;;;;;17.55;74.67;100268.25;5043234;28;20021;-86
2022/05/27 10:13:13;;;;;;;7.30;5.75;;;;;;;17.61;74.39;100267.56;5034086;28;20033;-86
2022/05/27 10:15:39;;;;;;;5.18;4.68;;;;;;;17.71;74.91;100264.66;5065598;28;20037;-87
2022/05/27 10:18:22;;;;;;;6.80;5.20;;;;;;;17.77;75.16;100258.56;5034300;28;20091;-86
2022/05/27 10:21:04;;;;;;;5.68;4.38;;;;;;;17.75;74.44;100257.03;5023454;28;20035;-85
2022/05/27 10:23:35;;;;;;;7.68;4.68;;;;;;;17.80;73.94;100260.91;5040670;28;20025;-86
2022/05/27 10:26:21;;;;;;;4.50;3.35;;;;;;;17.79;72.25;100266.50;5031988;28;20035;-88
2022/05/27 10:29:02;;;;;;;4.65;3.72;;;;;;;17.81;72.94;100267.16;5038288;28;20025;-86
2022/05/27 10:31:28;;;;;;;6.55;3.97;;;;;;;17.79;72.36;100271.91;5045745;28;20023;-86
2022/05/27 10:33:53;;;;;;;4.85;2.97;;;;;;;17.72;69.72;100268.22;5050696;28;20025;-86
2022/05/27 10:36:44;;;;;;;4.65;3.50;;;;;;;17.76;70.33;100267.69;5055614;28;20409;-86
2022/05/27 10:39:28;;;;;;;5.82;3.75;;;;;;;17.86;71.84;100268.31;5055212;28;20536;-87
2022/05/27 10:42:09;;;;;;;3.67;2.97;;;;;;;17.93;72.05;100266.56;5055314;28;20037;-86
2022/05/27 10:44:38;;;;;;;5.07;3.83;;;;;;;18.00;71.00;100255.91;5055267;28;20378;-87
2022/05/27 10:47:05;;;;;;;6.50;3.55;;;;;;;18.02;70.79;100267.41;5055364;28;20028;-87
2022/05/27 10:49:50;;;;;;;3.97;3.35;;;;;;;18.10;71.28;100266.50;5037607;28;20112;-73
2022/05/27 10:52:40;;;;;;;3.72;2.65;;;;;;;18.12;70.40;100254.47;5043176;28;20025;-73
2022/05/27 10:55:14;;;;;;;4.68;2.83;;;;;;;18.17;71.51;100253.94;5040701;28;20037;-74
2022/05/27 11:04:14;;;;;;;3.58;2.35;;;;;;;18.11;67.72;100252.78;5040367;28;20450;-73
2022/05/27 11:06:39;;;;;;;3.33;2.50;;;;;;;18.15;68.82;100242.44;5040513;28;20099;-71
2022/05/27 11:09:24;;;;;;;3.45;2.25;;;;;;;18.15;68.82;100254.13;5044003;28;20409;-73
2022/05/27 11:12:05;;;;;;;3.33;2.00;;;;;;;18.16;67.94;100261.22;5049523;28;20444;-73
2022/05/27 11:15:13;;;;;;;3.60;2.25;;;;;;;18.21;67.16;100249.84;5044062;28;20542;-71
2022/05/27 11:18:26;;;;;;;4.55;2.50;;;;;;;18.27;67.82;100242.84;5039896;28;20465;-72
2022/05/27 11:21:04;;;;;;;3.38;1.90;;;;;;;18.17;64.34;100257.47;5000157;28;20038;-73
2022/05/27 11:24:27;;;;;;;2.33;1.87;;;;;;;18.19;65.70;100258.16;4988759;28;20022;-73
2022/05/27 11:27:47;;;;;;;3.80;1.70;;;;;;;18.25;66.38;100253.88;4993449;28;20416;-72
2022/05/27 11:30:21;;;;;;;3.13;1.63;;;;;;;18.24;60.76;100260.31;4996138;28;20030;-73
2022/05/27 11:33:04;;;;;;;2.08;1.40;;;;;;;18.15;58.22;100259.53;5038843;28;20109;-73
2022/05/27 11:36:09;;;;;;;3.22;1.30;;;;;;;18.08;58.73;100265.84;5048112;28;20033;-74
2022/05/27 11:38:35;;;;;;;5.30;1.70;;;;;;;17.98;58.18;100260.66;5039322;28;20029;-74
2022/05/27 11:41:27;;;;;;;3.30;2.22;;;;;;;17.87;59.68;100267.28;5038665;28;20029;-72
2022/05/27 11:44:03;;;;;;;7.13;2.35;;;;;;;17.79;61.18;100263.78;5047343;28;20540;-75
2022/05/27 11:47:13;;;;;;;2.65;2.03;;;;;;;17.66;60.72;100277.84;5046270;28;20079;-74
2022/05/27 11:49:47;;;;;;;3.22;2.10;;;;;;;17.65;62.18;100269.91;5041144;28;20033;-69
2022/05/27 11:52:31;;;;;;;5.72;2.38;;;;;;;17.70;61.83;100275.66;5036646;28;20036;-73
2022/05/27 11:55:14;;;;;;;6.10;2.50;;;;;;;17.78;62.89;100265.66;5043660;28;20487;-72
2022/05/27 11:57:48;;;;;;;4.43;2.00;;;;;;;17.90;61.82;100256.09;5044601;28;20025;-73
2022/05/27 12:00:19;;;;;;;5.35;2.22;;;;;;;18.04;61.66;100261.81;5038207;28;20033;-74
2022/05/27 12:03:09;;;;;;;2.95;2.10;;;;;;;18.16;61.38;100260.38;5038277;28;20064;-72
2022/05/27 12:05:41;;;;;;;6.00;2.30;;;;;;;18.28;61.95;100255.38;5041288;28;20075;-73
2022/05/27 12:08:19;;;;;;;5.03;1.98;;;;;;;18.36;62.44;100247.19;5036598;28;20473;-72
2022/05/27 12:10:47;;;;;;;4.45;1.92;;;;;;;18.44;61.67;100249.81;5036228;28;20032;-72
2022/05/27 12:13:23;;;;;;;3.00;1.85;;;;;;;18.43;60.52;100264.38;5039369;28;20116;-73
2022/05/27 12:16:11;;;;;;;4.53;2.10;;;;;;;18.38;58.36;100255.97;5038032;28;20033;-73